METAR Data
IDs: Format: Raw Decoded Include TAF

Data at: 2120 UTC 20 Nov 2018

K5T9 202115Z AUTO 00000KT 10SM OVC040 11/00 A3026 RMK A01
K5T9 202055Z AUTO 00000KT 10SM OVC039 11/00 A3027 RMK A01
K5T9 202035Z AUTO 00000KT 10SM OVC038 11/M00 A3027 RMK A01
K5T9 202015Z AUTO 00000KT 10SM OVC038 10/M00 A3027 RMK A01
K5T9 201955Z AUTO 00000KT 10SM OVC038 10/M00 A3028 RMK A01
K5T9 201935Z AUTO 00000KT 10SM OVC038 10/M01 A3029 RMK A01
K5T9 201915Z AUTO 00000KT 10SM OVC039 10/M01 A3030 RMK A01
K5T9 201855Z AUTO 00000KT 10SM OVC040 10/M00 A3032 RMK A01
K5T9 201835Z AUTO 00000KT 10SM OVC038 10/M01 A3033 RMK A01
K5T9 201815Z AUTO 07005KT 10SM OVC037 09/M01 A3035 RMK A01
K5T9 201755Z AUTO 13005KT 10SM OVC038 10/M00 A3036 RMK A01
K5T9 201735Z AUTO VRB03KT 10SM OVC038 09/M00 A3036 RMK A01
K5T9 201715Z AUTO 10006KT 10SM OVC038 09/00 A3037 RMK A01
K5T9 201655Z AUTO 11003KT 10SM OVC040 09/M00 A3037 RMK A01
K5T9 201635Z AUTO VRB05KT 10SM OVC041 08/00 A3038 RMK A01
K5T9 201615Z AUTO 07009KT 10SM OVC041 08/00 A3037 RMK A01
K5T9 201555Z AUTO 08006KT 10SM OVC040 07/01 A3038 RMK A01
K5T9 201535Z AUTO 07005KT 10SM OVC039 07/01 A3038 RMK A01
K5T9 201515Z AUTO 03004KT 10SM BKN039 OVC048 06/01 A3037 RMK A01
K5T9 201455Z AUTO 00000KT 10SM BKN039 OVC048 05/01 A3037 RMK A01
K5T9 201435Z AUTO 32005KT 10SM OVC039 05/01 A3036 RMK A01
K5T9 201415Z AUTO 00000KT 10SM OVC038 05/01 A3035 RMK A01
K5T9 201355Z AUTO VRB04KT 10SM SCT024 OVC038 05/01 A3034 RMK A01
K5T9 201335Z AUTO VRB04KT 10SM SCT024 OVC038 05/01 A3033 RMK A01
K5T9 201315Z AUTO 36003KT 10SM BKN024 BKN031 OVC037 05/02 A3032 RMK A01
K5T9 201255Z AUTO 00000KT 10SM OVC037 05/02 A3032 RMK A01
K5T9 201235Z AUTO 00000KT 10SM OVC038 05/02 A3031 RMK A01
K5T9 201215Z AUTO 00000KT 10SM FEW028 OVC039 05/02 A3030 RMK A01
K5T9 201155Z AUTO 00000KT 10SM FEW028 OVC038 05/02 A3030 RMK A01
K5T9 201135Z AUTO 00000KT 10SM OVC036 05/02 A3029 RMK A01
K5T9 201115Z AUTO 00000KT 10SM OVC036 05/02 A3028 RMK A01
K5T9 201055Z AUTO 35004KT 10SM OVC035 06/03 A3028 RMK A01
K5T9 201035Z AUTO 34004KT 10SM OVC034 06/03 A3027 RMK A01
K5T9 201015Z AUTO 26003KT 10SM OVC032 06/03 A3027 RMK A01
K5T9 200955Z AUTO 00000KT 10SM OVC032 06/03 A3027 RMK A01
K5T9 200935Z AUTO 00000KT 10SM OVC029 06/03 A3026 RMK A01
K5T9 200915Z AUTO 00000KT 10SM OVC028 06/03 A3026 RMK A01
K5T9 200855Z AUTO 00000KT 10SM OVC027 06/03 A3026 RMK A01
K5T9 200835Z AUTO 00000KT 10SM OVC029 06/03 A3026 RMK A01
K5T9 200815Z AUTO 00000KT 10SM OVC030 06/03 A3026 RMK A01
K5T9 200755Z AUTO 00000KT 10SM OVC029 06/03 A3026 RMK A01
K5T9 200735Z AUTO 00000KT 10SM OVC028 06/03 A3026 RMK A01
K5T9 200715Z AUTO 00000KT 10SM OVC027 06/03 A3025 RMK A01
K5T9 200655Z AUTO 00000KT 10SM OVC026 06/03 A3025 RMK A01
K5T9 200635Z AUTO 00000KT 10SM OVC026 06/03 A3026 RMK A01
K5T9 200615Z AUTO 09003KT 10SM OVC026 06/03 A3025 RMK A01
K5T9 200555Z AUTO 10005KT 10SM OVC026 06/03 A3025 RMK A01
K5T9 200535Z AUTO 11004KT 10SM OVC026 06/03 A3025 RMK A01
K5T9 200515Z AUTO 10005KT 10SM OVC026 06/03 A3024 RMK A01
K5T9 200455Z AUTO 00000KT 10SM OVC025 05/03 A3025 RMK A01
K5T9 200435Z AUTO 00000KT 10SM OVC026 05/02 A3025 RMK A01
K5T9 200415Z AUTO 07004KT 10SM OVC026 04/02 A3024 RMK A01
K5T9 200355Z AUTO 00000KT 10SM BKN027 BKN032 OVC041 03/01 A3023 RMK A01
K5T9 200335Z AUTO 10003KT 10SM SCT042 03/01 A3022 RMK A01
K5T9 200315Z AUTO 13003KT 10SM FEW045 03/01 A3021 RMK A01
K5T9 200255Z AUTO 15003KT 10SM SCT045 04/02 A3020 RMK A01
K5T9 200235Z AUTO 13003KT 10SM SCT044 04/02 A3020 RMK A01
K5T9 200215Z AUTO 13004KT 10SM SCT043 04/02 A3019 RMK A01
K5T9 200155Z AUTO 14004KT 10SM SCT043 04/02 A3018 RMK A01
K5T9 200135Z AUTO 13004KT 10SM BKN042 05/02 A3017 RMK A01
K5T9 200115Z AUTO 14004KT 10SM SCT043 05/02 A3017 RMK A01
K5T9 200055Z AUTO 12004KT 10SM BKN044 06/02 A3016 RMK A01
K5T9 200035Z AUTO 10003KT 10SM SCT035 BKN042 BKN048 07/02 A3015 RMK A01
K5T9 200015Z AUTO 10004KT 10SM FEW029 SCT035 SCT042 08/03 A3015 RMK A01
K5T9 192355Z AUTO 10003KT 10SM CLR 08/03 A3014 RMK A01
K5T9 192335Z AUTO 00000KT 10SM CLR 09/03 A3014 RMK A01
K5T9 192315Z AUTO 00000KT 10SM CLR 10/02 A3013 RMK A01
K5T9 192255Z AUTO VRB05KT 10SM FEW031 11/02 A3012 RMK A01
K5T9 192235Z AUTO 09005KT 10SM CLR 11/02 A3012 RMK A01
K5T9 192215Z AUTO 10004KT 10SM CLR 11/02 A3011 RMK A01
K5T9 192155Z AUTO VRB04KT 10SM SCT030 11/02 A3011 RMK A01
K5T9 192135Z AUTO 00000KT 10SM OVC030 10/02 A3011 RMK A01
K5T9 192115Z AUTO 00000KT 10SM OVC030 11/02 A3012 RMK A01
K5T9 192055Z AUTO 00000KT 10SM OVC030 10/02 A3012 RMK A01
K5T9 192035Z AUTO 00000KT 10SM OVC029 10/02 A3013 RMK A01
K5T9 192015Z AUTO 00000KT 10SM OVC028 10/01 A3013 RMK A01
K5T9 191955Z AUTO 00000KT 10SM OVC028 09/01 A3014 RMK A01
K5T9 191935Z AUTO 00000KT 10SM OVC027 10/01 A3014 RMK A01
K5T9 191915Z AUTO 00000KT 10SM OVC027 09/01 A3015 RMK A01
K5T9 191855Z AUTO 35004KT 10SM OVC026 09/01 A3017 RMK A01
K5T9 191835Z AUTO 00000KT 10SM OVC025 09/01 A3018 RMK A01
K5T9 191815Z AUTO 00000KT 10SM OVC027 09/01 A3019 RMK A01
K5T9 191755Z AUTO VRB04KT 10SM OVC025 08/01 A3019 RMK A01
K5T9 191735Z AUTO 00000KT 10SM OVC024 07/00 A3021 RMK A01
K5T9 191715Z AUTO 00000KT 10SM OVC025 07/00 A3022 RMK A01
K5T9 191655Z AUTO 33004KT 10SM OVC025 08/00 A3022 RMK A01
K5T9 191635Z AUTO 00000KT 10SM OVC026 07/00 A3022 RMK A01
K5T9 191615Z AUTO 00000KT 10SM OVC026 07/01 A3021 RMK A01
K5T9 191555Z AUTO 00000KT 10SM OVC025 07/00 A3021 RMK A01
K5T9 191535Z AUTO 00000KT 10SM OVC026 07/00 A3021 RMK A01
K5T9 191515Z AUTO 00000KT 10SM OVC025 06/00 A3020 RMK A01
K5T9 191455Z AUTO 00000KT 10SM OVC024 06/00 A3020 RMK A01
K5T9 191435Z AUTO 04004KT 10SM OVC022 06/00 A3019 RMK A01
K5T9 191415Z AUTO 05003KT 10SM OVC021 06/00 A3018 RMK A01
K5T9 191355Z AUTO 00000KT 10SM BKN020 BKN025 OVC039 05/00 A3017 RMK A01
K5T9 191335Z AUTO VRB03KT 10SM SCT020 BKN024 OVC040 05/00 A3017 RMK A01
K5T9 191315Z AUTO 00000KT 10SM OVC020 05/00 A3017 RMK A01
K5T9 191255Z AUTO 00000KT 10SM OVC020 05/00 A3017 RMK A01
K5T9 191235Z AUTO 00000KT 10SM OVC020 05/01 A3016 RMK A01
K5T9 191215Z AUTO 00000KT 10SM OVC020 05/01 A3016 RMK A01
K5T9 191155Z AUTO 00000KT 10SM OVC020 05/01 A3016 RMK A01
K5T9 191135Z AUTO 00000KT 10SM OVC020 05/01 A3015 RMK A01
K5T9 191115Z AUTO 00000KT 10SM OVC020 05/01 A3015 RMK A01
K5T9 191055Z AUTO 31003KT 10SM OVC020 05/01 A3014 RMK A01
K5T9 191035Z AUTO 00000KT 10SM OVC021 05/01 A3015 RMK A01
K5T9 191015Z AUTO 00000KT 10SM OVC020 05/01 A3015 RMK A01
K5T9 190955Z AUTO 00000KT 10SM OVC020 05/01 A3014 RMK A01
K5T9 190935Z AUTO 00000KT 10SM OVC020 05/01 A3015 RMK A01